Time;durP1;ratioP1;P1;durP2;ratioP2;P2;SDS_P1;SDS_P2;PMS_P1;PMS_P2;Temp;Humidity;BMP_temperature;BMP_pressure;BME280_temperature;BME280_humidity;BME280_pressure;Samples;Min_cycle;Max_cycle;Signal;HPM_P1;HPM_P2
2023/07/22 00:02:38;;;;;;;3.33;2.70;;;15.30;99.90;;;;;;6240698;28;20519;-78
2023/07/22 00:05:40;;;;;;;3.35;3.05;;;15.30;99.90;;;;;;6238528;28;20483;-79
2023/07/22 00:08:42;;;;;;;4.07;2.67;;;15.30;99.90;;;;;;6239916;28;20048;-79
2023/07/22 00:11:44;;;;;;;4.47;2.90;;;15.30;99.90;;;;;;6240405;28;20049;-80
2023/07/22 00:14:47;;;;;;;4.93;3.10;;;15.20;99.90;;;;;;6253966;28;20026;-80
2023/07/22 00:17:49;;;;;;;3.85;2.45;;;15.30;99.90;;;;;;6245472;28;20117;-81
2023/07/22 00:20:50;;;;;;;4.93;3.28;;;15.30;99.90;;;;;;6244281;28;20049;-80
2023/07/22 00:23:52;;;;;;;11.32;3.10;;;15.20;99.90;;;;;;6242516;28;20049;-82
2023/07/22 00:26:54;;;;;;;5.53;3.70;;;15.20;99.90;;;;;;6241824;28;20056;-81
2023/07/22 00:29:57;;;;;;;4.82;2.95;;;15.10;99.90;;;;;;6242531;28;20046;-80
2023/07/22 00:32:59;;;;;;;7.15;3.13;;;15.00;99.90;;;;;;6242069;28;20057;-80
2023/07/22 00:36:00;;;;;;;4.32;3.67;;;15.00;99.90;;;;;;6242742;28;20057;-79
2023/07/22 00:39:02;;;;;;;3.97;3.58;;;14.90;99.90;;;;;;6241782;28;20042;-80
2023/07/22 00:42:04;;;;;;;3.88;3.55;;;14.80;99.90;;;;;;6242349;28;20081;-80
2023/07/22 00:45:08;;;;;;;5.80;2.92;;;14.80;99.90;;;;;;6241127;28;20049;-79
2023/07/22 00:48:11;;;;;;;4.93;3.33;;;14.70;99.90;;;;;;6241069;28;20537;-78
2023/07/22 00:51:13;;;;;;;5.18;3.53;;;14.60;99.90;;;;;;6237787;28;20053;-78
2023/07/22 00:54:15;;;;;;;4.07;2.92;;;14.60;99.90;;;;;;6239700;28;20052;-79
2023/07/22 00:57:17;;;;;;;4.78;3.45;;;14.60;99.90;;;;;;6240716;28;20057;-78
2023/07/22 01:00:20;;;;;;;5.25;3.53;;;14.60;99.90;;;;;;6239768;28;20061;-78
2023/07/22 01:03:21;;;;;;;4.63;3.50;;;14.60;99.90;;;;;;6239866;28;20069;-78
2023/07/22 01:06:24;;;;;;;4.03;3.35;;;14.60;99.90;;;;;;6239705;28;20042;-79
2023/07/22 01:09:26;;;;;;;4.00;3.60;;;14.60;99.90;;;;;;6239321;28;20049;-79
2023/07/22 01:12:28;;;;;;;3.97;3.58;;;14.60;99.90;;;;;;6239160;28;20046;-79
2023/07/22 01:15:31;;;;;;;4.03;3.25;;;14.60;99.90;;;;;;6239863;28;20060;-78
2023/07/22 01:18:33;;;;;;;3.65;3.05;;;14.50;99.90;;;;;;6238843;28;20052;-79
2023/07/22 01:21:35;;;;;;;6.00;3.58;;;14.50;99.90;;;;;;6238808;28;20041;-78
2023/07/22 01:24:39;;;;;;;5.28;4.05;;;14.40;99.90;;;;;;6238335;28;20413;-78
2023/07/22 01:27:41;;;;;;;3.40;3.10;;;14.40;99.90;;;;;;6238691;28;20060;-78
2023/07/22 01:30:43;;;;;;;5.00;3.53;;;14.40;99.90;;;;;;6229658;28;20065;-77
2023/07/22 01:33:44;;;;;;;3.55;2.95;;;14.30;99.90;;;;;;6238115;28;20050;-78
2023/07/22 01:36:47;;;;;;;5.78;3.60;;;14.30;99.90;;;;;;6238932;28;20532;-78
2023/07/22 01:39:51;;;;;;;4.53;3.33;;;14.20;99.90;;;;;;6237033;28;20133;-78
2023/07/22 01:42:52;;;;;;;4.05;3.20;;;14.10;99.90;;;;;;6237866;28;20147;-78
2023/07/22 01:45:54;;;;;;;3.25;2.95;;;14.10;99.90;;;;;;6237901;28;20451;-77
2023/07/22 01:48:56;;;;;;;4.68;3.95;;;14.00;99.90;;;;;;6235975;28;20042;-81
2023/07/22 01:51:58;;;;;;;4.55;3.60;;;13.90;99.90;;;;;;6234810;28;20079;-79
2023/07/22 01:55:01;;;;;;;4.18;3.78;;;13.90;99.90;;;;;;6235913;28;20060;-80
2023/07/22 01:58:02;;;;;;;4.10;3.35;;;13.80;99.90;;;;;;6235882;28;20053;-80
2023/07/22 02:01:05;;;;;;;5.15;3.88;;;13.80;99.90;;;;;;6233628;28;20058;-80
2023/07/22 02:04:07;;;;;;;5.85;3.95;;;13.70;99.90;;;;;;6237976;28;20776;-80
2023/07/22 02:07:09;;;;;;;4.78;3.30;;;13.60;99.90;;;;;;6233350;28;20096;-80
2023/07/22 02:10:13;;;;;;;3.42;3.05;;;13.60;99.90;;;;;;6237090;28;20041;-80
2023/07/22 02:13:15;;;;;;;4.32;2.92;;;13.60;99.90;;;;;;6233013;28;20060;-79
2023/07/22 02:16:17;;;;;;;5.20;4.32;;;13.50;99.90;;;;;;6236288;28;20065;-80
2023/07/22 02:19:18;;;;;;;4.03;3.50;;;13.40;99.90;;;;;;6236346;28;20056;-80
2023/07/22 02:22:20;;;;;;;3.55;3.25;;;13.40;99.90;;;;;;6236522;28;20049;-80
2023/07/22 02:25:23;;;;;;;5.40;3.53;;;13.40;99.90;;;;;;6236873;28;20045;-79
2023/07/22 02:28:26;;;;;;;5.70;3.80;;;13.40;99.90;;;;;;6237879;28;20057;-80
2023/07/22 02:31:28;;;;;;;5.55;3.75;;;13.50;99.90;;;;;;6237973;28;20050;-79
2023/07/22 02:34:30;;;;;;;3.38;3.03;;;13.50;99.90;;;;;;6238162;28;20050;-80
2023/07/22 02:37:31;;;;;;;4.43;3.40;;;13.40;99.90;;;;;;6237599;28;20057;-80
2023/07/22 02:40:36;;;;;;;3.92;2.80;;;13.40;99.90;;;;;;6238027;28;20048;-80
2023/07/22 02:43:38;;;;;;;3.95;3.53;;;13.30;99.90;;;;;;6239020;28;20056;-81
2023/07/22 02:46:41;;;;;;;4.93;4.40;;;13.30;99.90;;;;;;6237891;28;20050;-80
2023/07/22 02:49:42;;;;;;;3.90;3.08;;;13.20;99.90;;;;;;6238729;28;20038;-80
2023/07/22 02:52:44;;;;;;;3.97;3.58;;;13.20;99.90;;;;;;6242440;28;20068;-81
2023/07/22 02:55:48;;;;;;;5.63;3.47;;;13.20;99.90;;;;;;6242559;28;20049;-80
2023/07/22 02:58:50;;;;;;;3.97;2.88;;;13.10;99.90;;;;;;6243900;28;20057;-79
2023/07/22 03:01:52;;;;;;;4.68;3.10;;;13.00;99.90;;;;;;6242656;28;20512;-79
2023/07/22 03:04:55;;;;;;;5.00;3.40;;;12.90;99.90;;;;;;6241877;28;20056;-80
2023/07/22 03:07:58;;;;;;;4.53;3.42;;;12.90;99.90;;;;;;6242571;28;20049;-80
2023/07/22 03:11:01;;;;;;;4.03;3.63;;;12.80;99.90;;;;;;6243569;28;20061;-80
2023/07/22 03:14:03;;;;;;;5.72;3.42;;;12.80;99.90;;;;;;6242089;28;20045;-80
2023/07/22 03:17:05;;;;;;;3.72;3.42;;;12.80;99.90;;;;;;6241863;28;20056;-80
2023/07/22 03:20:11;;;;;;;4.10;3.70;;;12.70;99.90;;;;;;6241984;28;20046;-80
2023/07/22 03:23:13;;;;;;;4.50;4.10;;;12.70;99.90;;;;;;6242377;28;20077;-80
2023/07/22 03:26:16;;;;;;;4.38;3.58;;;12.70;99.90;;;;;;6238390;28;20109;-80
2023/07/22 03:29:18;;;;;;;4.40;3.30;;;12.70;99.90;;;;;;6239633;28;20042;-79
2023/07/22 03:32:20;;;;;;;3.90;3.38;;;12.70;99.90;;;;;;6239743;28;20052;-80
2023/07/22 03:35:21;;;;;;;3.30;3.05;;;12.60;99.90;;;;;;6238906;28;20042;-81
2023/07/22 03:38:24;;;;;;;4.18;3.78;;;12.60;99.90;;;;;;6238433;28;20045;-80
2023/07/22 03:41:27;;;;;;;3.80;3.40;;;12.60;99.90;;;;;;6240576;28;20065;-81
2023/07/22 03:44:29;;;;;;;4.53;3.78;;;12.70;99.90;;;;;;6240017;28;20052;-81
2023/07/22 03:47:30;;;;;;;3.65;3.35;;;12.60;99.90;;;;;;6240305;28;20058;-81
2023/07/22 03:50:32;;;;;;;6.00;2.97;;;12.60;99.90;;;;;;6240047;28;20049;-82
2023/07/22 03:53:34;;;;;;;5.43;3.55;;;12.60;99.90;;;;;;6240543;28;20049;-81
2023/07/22 03:56:39;;;;;;;4.63;3.28;;;12.60;99.90;;;;;;6239883;28;20125;-80
2023/07/22 03:59:41;;;;;;;5.18;3.92;;;12.50;99.90;;;;;;6239624;28;20046;-82
2023/07/22 04:02:42;;;;;;;4.38;3.42;;;12.50;99.90;;;;;;6239139;28;20054;-80
2023/07/22 04:05:44;;;;;;;3.88;3.42;;;12.50;99.90;;;;;;6239187;28;20060;-82
2023/07/22 04:08:46;;;;;;;5.68;4.93;;;12.50;99.90;;;;;;6237778;28;20076;-82
2023/07/22 04:11:49;;;;;;;3.50;3.20;;;12.50;99.90;;;;;;6235262;28;20493;-83
2023/07/22 04:14:50;;;;;;;9.00;4.00;;;12.50;99.90;;;;;;6231064;28;20413;-80
2023/07/22 04:17:52;;;;;;;3.95;3.53;;;12.50;99.90;;;;;;6232507;28;20485;-79
2023/07/22 04:20:57;;;;;;;4.25;2.97;;;12.50;99.90;;;;;;6240873;28;20050;-80
2023/07/22 04:24:02;;;;;;;7.85;4.10;;;12.60;99.90;;;;;;6234713;28;20084;-82
2023/07/22 04:27:05;;;;;;;4.07;3.78;;;12.60;99.90;;;;;;6231670;28;20084;-81
2023/07/22 04:30:08;;;;;;;4.72;3.63;;;12.60;99.90;;;;;;6231193;28;20129;-81
2023/07/22 04:33:10;;;;;;;6.53;4.03;;;12.70;99.90;;;;;;6238133;28;20045;-79
2023/07/22 04:36:12;;;;;;;5.25;2.88;;;12.80;99.90;;;;;;6236985;28;20053;-82
2023/07/22 04:39:14;;;;;;;4.45;3.05;;;12.90;99.90;;;;;;6229492;28;20053;-80
2023/07/22 04:42:17;;;;;;;4.40;3.10;;;13.10;99.90;;;;;;6235644;28;20093;-81
2023/07/22 04:45:19;;;;;;;4.82;3.47;;;13.10;99.90;;;;;;6236826;28;20046;-79
2023/07/22 04:48:23;;;;;;;4.78;3.20;;;13.20;99.90;;;;;;6235287;28;20421;-80
2023/07/22 04:51:24;;;;;;;2.95;2.75;;;13.40;99.90;;;;;;6230240;28;20393;-82
2023/07/22 04:54:28;;;;;;;6.13;3.55;;;13.60;99.90;;;;;;6234454;28;20049;-81
2023/07/22 04:57:31;;;;;;;3.17;2.88;;;13.80;99.90;;;;;;6229796;28;20505;-81
2023/07/22 05:00:33;;;;;;;3.38;2.75;;;14.00;99.90;;;;;;6227358;28;20045;-80
2023/07/22 05:03:35;;;;;;;4.97;2.83;;;14.10;99.90;;;;;;6233793;28;20057;-80
2023/07/22 05:06:37;;;;;;;3.80;3.47;;;14.30;99.90;;;;;;6227635;28;20128;-81
2023/07/22 05:09:38;;;;;;;4.70;3.42;;;14.40;99.90;;;;;;6233259;28;20046;-82
2023/07/22 05:12:42;;;;;;;4.65;3.67;;;14.50;99.90;;;;;;6232577;28;20049;-82
2023/07/22 05:15:44;;;;;;;4.07;3.67;;;14.60;99.90;;;;;;6233922;28;20390;-80
2023/07/22 05:18:46;;;;;;;3.83;3.25;;;14.90;99.90;;;;;;6235504;28;20132;-80
2023/07/22 05:21:48;;;;;;;3.70;2.60;;;15.10;99.90;;;;;;6237539;28;20056;-81
2023/07/22 05:24:49;;;;;;;2.97;2.70;;;15.40;99.90;;;;;;6236197;28;20061;-80
2023/07/22 05:27:52;;;;;;;3.08;2.45;;;15.60;99.90;;;;;;6234165;28;20049;-83
2023/07/22 05:30:56;;;;;;;3.88;3.53;;;15.90;99.90;;;;;;6232286;28;20049;-80
2023/07/22 05:33:58;;;;;;;3.78;2.75;;;16.20;99.90;;;;;;6233234;28;20046;-82
2023/07/22 05:37:00;;;;;;;5.03;2.83;;;16.60;99.90;;;;;;6231640;28;20054;-82
2023/07/22 05:40:02;;;;;;;4.07;2.70;;;16.70;99.90;;;;;;6229857;28;20049;-82
2023/07/22 05:43:05;;;;;;;3.88;2.95;;;16.80;99.90;;;;;;6224282;28;20046;-82
2023/07/22 05:46:06;;;;;;;3.33;2.63;;;17.00;99.90;;;;;;6231576;28;20054;-79
2023/07/22 05:49:08;;;;;;;4.53;2.80;;;17.10;99.90;;;;;;6236534;28;20053;-80
2023/07/22 05:52:10;;;;;;;4.65;3.08;;;17.20;99.90;;;;;;6230730;28;20044;-83
2023/07/22 05:55:11;;;;;;;6.80;2.92;;;17.20;99.90;;;;;;6226223;28;20050;-82
2023/07/22 05:58:18;;;;;;;3.35;2.70;;;17.30;99.90;;;;;;6230800;28;20068;-81
2023/07/22 06:01:21;;;;;;;3.92;3.22;;;17.30;99.90;;;;;;6235014;28;20045;-83
2023/07/22 06:04:23;;;;;;;4.75;3.05;;;17.30;99.90;;;;;;6230359;28;20037;-83
2023/07/22 06:07:25;;;;;;;10.82;3.78;;;17.40;99.90;;;;;;6230688;28;20046;-81
2023/07/22 06:10:27;;;;;;;4.55;2.90;;;17.80;99.90;;;;;;6226496;28;20046;-80
2023/07/22 06:13:30;;;;;;;7.13;3.20;;;18.40;99.90;;;;;;6227438;28;20042;-80
2023/07/22 06:16:31;;;;;;;6.57;3.60;;;19.20;99.90;;;;;;6228635;28;20436;-83
2023/07/22 06:19:33;;;;;;;3.80;3.20;;;20.10;99.90;;;;;;6226878;28;20050;-82
2023/07/22 06:22:35;;;;;;;5.07;2.92;;;20.90;99.90;;;;;;6230502;28;20053;-81
2023/07/22 06:25:36;;;;;;;4.88;2.58;;;21.60;99.90;;;;;;6233820;28;20060;-78
2023/07/22 06:28:39;;;;;;;2.95;2.25;;;22.10;99.90;;;;;;6224618;28;20072;-81
2023/07/22 06:31:41;;;;;;;3.42;2.58;;;22.10;99.80;;;;;;6224974;28;20057;-82
2023/07/22 06:34:43;;;;;;;6.47;3.05;;;22.00;99.10;;;;;;6229946;28;20512;-80
2023/07/22 06:37:44;;;;;;;3.20;2.55;;;22.30;98.20;;;;;;6233138;28;20045;-79
2023/07/22 06:40:46;;;;;;;2.65;2.20;;;22.50;97.00;;;;;;6231651;28;20250;-82
2023/07/22 06:43:50;;;;;;;2.97;2.78;;;22.60;95.70;;;;;;6233418;28;20046;-80
2023/07/22 06:46:51;;;;;;;6.35;2.70;;;22.70;95.30;;;;;;6240167;28;20046;-81
2023/07/22 06:49:53;;;;;;;2.75;2.00;;;22.80;94.50;;;;;;6237485;28;20053;-80
2023/07/22 06:52:55;;;;;;;3.97;2.47;;;22.90;94.10;;;;;;6239630;28;20061;-81
2023/07/22 06:55:56;;;;;;;4.85;2.13;;;23.40;93.10;;;;;;6240626;28;20054;-81
2023/07/22 06:58:59;;;;;;;5.13;2.72;;;23.40;91.70;;;;;;6233528;28;20470;-80
2023/07/22 07:02:02;;;;;;;8.18;3.17;;;23.60;91.00;;;;;;6223035;28;20042;-80
2023/07/22 07:05:04;;;;;;;3.53;2.42;;;23.00;90.50;;;;;;6230657;28;20053;-79
2023/07/22 07:08:06;;;;;;;5.88;2.35;;;22.50;90.50;;;;;;6233318;28;20188;-81
2023/07/22 07:11:07;;;;;;;4.50;2.60;;;21.90;91.10;;;;;;6232084;28;20046;-80
2023/07/22 07:14:10;;;;;;;3.08;2.30;;;21.60;91.70;;;;;;6212099;28;20053;-83
2023/07/22 07:17:13;;;;;;;2.90;2.38;;;21.30;92.10;;;;;;6247155;28;20056;-80
2023/07/22 07:20:15;;;;;;;3.97;3.03;;;21.10;92.40;;;;;;6247102;28;20053;-81
2023/07/22 07:23:17;;;;;;;4.15;2.90;;;21.10;92.80;;;;;;6225396;28;20049;-78
2023/07/22 07:26:19;;;;;;;2.78;2.42;;;21.60;93.20;;;;;;6226399;28;20046;-80
2023/07/22 07:29:22;;;;;;;4.38;3.45;;;22.50;92.40;;;;;;6221621;28;20053;-80
2023/07/22 07:32:24;;;;;;;2.92;2.47;;;22.60;91.10;;;;;;6233694;28;20414;-81
2023/07/22 07:35:26;;;;;;;4.47;2.97;;;22.50;91.00;;;;;;6270103;28;20056;-81
2023/07/22 07:38:28;;;;;;;2.63;2.25;;;22.40;90.90;;;;;;6279529;28;20067;-83
2023/07/22 07:41:31;;;;;;;3.63;2.75;;;22.10;90.90;;;;;;6279959;28;20037;-84
2023/07/22 07:44:34;;;;;;;5.82;3.38;;;22.10;91.10;;;;;;6280179;28;20364;-82
2023/07/22 07:47:35;;;;;;;3.25;2.30;;;22.00;91.10;;;;;;6257567;28;20638;-80
2023/07/22 07:50:37;;;;;;;5.90;2.65;;;21.90;91.00;;;;;;6253180;28;20184;-83
2023/07/22 07:53:39;;;;;;;4.63;3.03;;;21.80;91.20;;;;;;6253228;28;20049;-83
2023/07/22 07:56:40;;;;;;;1.92;1.75;;;21.80;91.20;;;;;;6254431;28;20042;-82
2023/07/22 07:59:44;;;;;;;5.80;2.30;;;21.70;91.10;;;;;;6256280;28;20042;-80
2023/07/22 08:02:45;;;;;;;9.02;2.42;;;21.60;91.20;;;;;;6257963;28;20488;-80
2023/07/22 08:05:47;;;;;;;5.35;2.53;;;21.60;91.50;;;;;;6256042;28;20585;-79
2023/07/22 08:08:49;;;;;;;3.22;2.30;;;21.50;91.60;;;;;;6254020;28;20369;-81
2023/07/22 08:11:51;;;;;;;13.13;2.58;;;21.70;91.60;;;;;;6257497;28;20061;-81
2023/07/22 08:14:55;;;;;;;4.70;2.72;;;21.90;91.20;;;;;;6255868;28;20049;-83
2023/07/22 08:17:56;;;;;;;3.40;2.05;;;22.10;90.80;;;;;;6254992;28;20049;-84
2023/07/22 08:20:58;;;;;;;3.97;1.95;;;22.30;90.50;;;;;;6255093;28;20500;-84
2023/07/22 08:24:00;;;;;;;2.60;1.92;;;22.50;90.00;;;;;;6254364;28;20053;-81
2023/07/22 08:27:02;;;;;;;3.13;2.22;;;22.60;89.00;;;;;;6254628;28;20045;-80
2023/07/22 08:30:06;;;;;;;4.78;1.90;;;22.50;88.90;;;;;;6252469;28;20045;-81
2023/07/22 08:33:08;;;;;;;4.15;2.00;;;22.60;88.50;;;;;;6254650;28;20053;-80
2023/07/22 08:36:09;;;;;;;5.32;2.35;;;22.70;88.20;;;;;;6252120;28;20068;-83
2023/07/22 08:39:11;;;;;;;8.57;3.20;;;22.80;87.90;;;;;;6253361;28;20049;-79
2023/07/22 08:42:16;;;;;;;7.80;2.45;;;23.00;88.10;;;;;;6252220;28;20046;-81
2023/07/22 08:45:20;;;;;;;3.60;2.35;;;23.40;86.60;;;;;;6251523;28;20052;-82
2023/07/22 08:48:26;;;;;;;2.33;1.83;;;23.80;85.20;;;;;;6254152;28;20056;-85
2023/07/22 08:51:29;;;;;;;2.08;1.65;;;24.00;83.20;;;;;;6254775;28;20049;-80
2023/07/22 08:54:31;;;;;;;4.05;2.40;;;24.50;81.70;;;;;;6253525;28;20107;-82
2023/07/22 08:57:34;;;;;;;3.58;2.25;;;24.60;79.10;;;;;;6251218;28;20457;-83
2023/07/22 09:00:37;;;;;;;2.03;1.17;;;24.80;77.10;;;;;;6249204;28;20037;-81
2023/07/22 09:03:41;;;;;;;3.47;1.67;;;24.80;74.70;;;;;;6248614;28;20056;-80
2023/07/22 09:06:44;;;;;;;1.58;1.30;;;24.80;74.20;;;;;;6247158;28;20064;-81
2023/07/22 09:09:47;;;;;;;3.40;1.52;;;24.90;73.20;;;;;;6226808;28;20158;-80
2023/07/22 09:12:51;;;;;;;12.70;3.20;;;24.90;73.20;;;;;;6222720;28;20058;-82
2023/07/22 09:15:58;;;;;;;3.22;1.98;;;25.00;72.60;;;;;;6220988;28;20109;-84
2023/07/22 09:19:00;;;;;;;3.45;1.15;;;25.20;72.40;;;;;;6219183;28;20046;-82
2023/07/22 09:22:01;;;;;;;5.05;4.05;;;25.20;71.90;;;;;;6217168;28;20382;-80
2023/07/22 09:25:18;;;;;;;3.42;1.40;;;25.40;72.30;;;;;;6220229;28;20049;-79
2023/07/22 09:28:20;;;;;;;4.05;1.95;;;25.50;71.70;;;;;;6225617;28;22963;-80
2023/07/22 09:31:25;;;;;;;2.22;1.40;;;25.40;72.10;;;;;;6227040;28;20057;-80
2023/07/22 09:34:28;;;;;;;3.05;1.30;;;25.50;72.50;;;;;;6226317;28;20050;-80
2023/07/22 09:37:37;;;;;;;5.38;2.10;;;25.60;70.90;;;;;;6223243;28;20045;-80
2023/07/22 09:40:41;;;;;;;5.03;1.45;;;25.90;70.30;;;;;;6222099;28;20581;-81
2023/07/22 09:43:42;;;;;;;2.20;1.60;;;26.20;68.00;;;;;;6216492;28;20060;-79
2023/07/22 09:46:49;;;;;;;3.30;2.08;;;26.20;65.80;;;;;;6219219;28;20053;-80
2023/07/22 09:49:51;;;;;;;4.78;1.92;;;26.20;65.60;;;;;;6221934;28;20067;-81
2023/07/22 09:52:54;;;;;;;2.33;1.30;;;26.30;65.30;;;;;;6225435;28;20052;-81
2023/07/22 09:55:56;;;;;;;1.98;1.52;;;26.50;64.50;;;;;;6227353;28;20065;-79
2023/07/22 09:58:59;;;;;;;3.45;2.30;;;26.70;63.50;;;;;;6221116;28;20045;-81
2023/07/22 10:02:03;;;;;;;1.67;1.30;;;26.70;63.40;;;;;;6240867;28;20040;-80
2023/07/22 10:05:06;;;;;;;3.47;1.83;;;26.90;62.90;;;;;;6244874;28;20066;-80
2023/07/22 10:08:08;;;;;;;5.07;2.65;;;26.90;62.60;;;;;;6242952;28;20428;-80
2023/07/22 10:11:12;;;;;;;1.95;1.65;;;27.20;62.20;;;;;;6249447;28;20053;-81
2023/07/22 10:14:14;;;;;;;4.63;1.70;;;27.00;62.10;;;;;;6253623;28;20064;-80
2023/07/22 10:17:18;;;;;;;2.38;2.17;;;27.30;62.30;;;;;;6250760;28;20045;-81
2023/07/22 10:20:20;;;;;;;4.05;1.58;;;27.60;61.20;;;;;;6252005;28;20047;-77
2023/07/22 10:23:24;;;;;;;6.18;1.50;;;27.80;60.50;;;;;;6257736;28;20414;-80
2023/07/22 10:26:26;;;;;;;4.20;2.90;;;27.90;59.80;;;;;;6247058;28;20060;-83
2023/07/22 10:29:27;;;;;;;1.85;1.55;;;28.00;59.70;;;;;;6236184;28;20074;-83
2023/07/22 10:32:35;;;;;;;2.92;1.88;;;28.30;58.10;;;;;;6220487;28;20045;-83
2023/07/22 10:35:42;;;;;;;4.78;2.50;;;28.30;57.00;;;;;;6223246;28;20046;-82
2023/07/22 10:38:55;;;;;;;2.63;1.58;;;28.50;56.60;;;;;;6225901;28;20091;-82
2023/07/22 10:42:02;;;;;;;2.88;1.83;;;28.80;56.40;;;;;;6226138;28;20045;-81
2023/07/22 10:45:24;;;;;;;4.15;3.05;;;28.90;55.60;;;;;;6230220;28;20105;-81
2023/07/22 10:48:34;;;;;;;1.60;1.20;;;28.50;55.80;;;;;;6227142;28;20065;-81
2023/07/22 10:51:37;;;;;;;9.07;1.67;;;28.50;55.80;;;;;;6238685;28;20053;-78
2023/07/22 10:54:38;;;;;;;1.63;1.42;;;28.30;55.80;;;;;;6244564;28;20061;-79
2023/07/22 10:57:49;;;;;;;2.53;1.65;;;28.30;55.80;;;;;;6243009;28;20049;-80
2023/07/22 11:00:51;;;;;;;3.97;2.05;;;28.60;55.90;;;;;;6246178;28;20049;-81
2023/07/22 11:04:15;;;;;;;2.70;1.50;;;28.70;55.20;;;;;;6245628;28;20045;-79
2023/07/22 11:07:30;;;;;;;2.50;1.95;;;28.70;54.50;;;;;;6249215;28;20076;-78
2023/07/22 11:10:31;;;;;;;3.05;1.98;;;28.70;54.10;;;;;;6252590;28;20133;-78
2023/07/22 11:13:38;;;;;;;4.50;1.77;;;29.10;54.10;;;;;;6251451;28;20052;-78
2023/07/22 11:16:40;;;;;;;2.67;1.65;;;29.10;52.70;;;;;;6254036;28;20439;-77
2023/07/22 11:19:43;;;;;;;3.95;1.50;;;29.00;53.50;;;;;;6247328;28;20060;-79
2023/07/22 11:22:45;;;;;;;2.75;2.42;;;29.60;52.00;;;;;;6259157;28;20040;-79
2023/07/22 11:25:46;;;;;;;2.25;1.60;;;29.70;50.50;;;;;;6257322;28;20061;-79
2023/07/22 11:28:48;;;;;;;5.70;1.50;;;29.60;50.80;;;;;;6247032;28;20515;-80
2023/07/22 11:31:51;;;;;;;1.48;1.30;;;29.70;50.00;;;;;;6251994;28;20480;-80
2023/07/22 11:34:55;;;;;;;1.60;1.48;;;29.50;49.90;;;;;;6243799;28;20057;-79
2023/07/22 11:38:01;;;;;;;4.75;2.00;;;29.80;50.00;;;;;;6251346;28;20050;-81
2023/07/22 11:41:03;;;;;;;2.25;1.20;;;30.00;49.30;;;;;;6250403;28;20037;-79
2023/07/22 11:44:08;;;;;;;1.58;1.48;;;30.40;48.50;;;;;;6247829;28;20052;-80
2023/07/22 11:47:11;;;;;;;1.63;1.23;;;30.80;48.40;;;;;;6256412;28;20053;-80
2023/07/22 11:50:15;;;;;;;2.92;1.73;;;31.10;47.60;;;;;;6251751;28;20045;-82
2023/07/22 11:53:17;;;;;;;2.33;1.08;;;31.20;47.40;;;;;;6252960;28;20049;-82
2023/07/22 11:56:20;;;;;;;2.42;1.20;;;30.90;46.80;;;;;;6255858;28;20041;-79
2023/07/22 11:59:36;;;;;;;2.65;1.50;;;30.60;47.10;;;;;;6252158;28;20049;-79
2023/07/22 12:02:37;;;;;;;1.85;1.30;;;30.40;47.20;;;;;;6240109;28;20041;-81
2023/07/22 12:05:40;;;;;;;2.10;1.20;;;30.30;47.70;;;;;;6247376;28;20041;-81
2023/07/22 12:08:46;;;;;;;5.55;1.80;;;30.30;47.50;;;;;;6243995;28;20045;-79
2023/07/22 12:11:49;;;;;;;4.28;1.63;;;30.10;47.00;;;;;;6245926;28;20045;-80
2023/07/22 12:14:51;;;;;;;4.70;1.27;;;29.70;47.40;;;;;;6246863;28;20505;-80
2023/07/22 12:17:54;;;;;;;2.55;1.55;;;29.50;47.80;;;;;;6241914;28;20125;-80
2023/07/22 12:20:58;;;;;;;3.58;1.58;;;29.70;47.70;;;;;;6244074;28;20056;-78
2023/07/22 12:24:01;;;;;;;3.20;1.80;;;29.60;47.50;;;;;;6243244;28;20090;-78
2023/07/22 12:27:03;;;;;;;2.90;1.88;;;29.70;47.90;;;;;;6241714;28;20136;-78
2023/07/22 12:30:06;;;;;;;2.92;1.67;;;30.10;47.30;;;;;;6241013;28;20179;-79
2023/07/22 12:33:08;;;;;;;8.02;1.70;;;30.50;46.90;;;;;;6241922;28;20060;-78
2023/07/22 12:36:12;;;;;;;2.90;1.40;;;30.40;46.30;;;;;;6243099;28;20516;-77
2023/07/22 12:39:14;;;;;;;2.65;1.70;;;30.20;46.30;;;;;;6241336;28;20053;-79
2023/07/22 12:42:16;;;;;;;3.33;1.50;;;30.40;45.90;;;;;;6245932;28;20175;-78
2023/07/22 12:45:17;;;;;;;2.17;1.35;;;30.50;45.10;;;;;;6243979;28;20049;-79
2023/07/22 12:48:20;;;;;;;2.53;1.38;;;30.60;45.20;;;;;;6242817;28;20057;-78
2023/07/22 12:51:23;;;;;;;1.98;1.52;;;30.20;45.00;;;;;;6247635;28;20057;-79
2023/07/22 12:54:25;;;;;;;1.65;1.20;;;30.10;45.40;;;;;;6245619;28;20050;-79
2023/07/22 12:57:26;;;;;;;2.00;1.70;;;30.20;45.20;;;;;;6247802;28;20057;-79
2023/07/22 13:00:29;;;;;;;2.40;1.75;;;30.10;45.00;;;;;;6246525;28;20111;-78
2023/07/22 13:03:31;;;;;;;3.67;1.45;;;30.00;44.90;;;;;;6241683;28;20045;-78
2023/07/22 13:06:36;;;;;;;2.05;1.30;;;29.70;44.50;;;;;;6244597;28;20638;-78
2023/07/22 13:09:38;;;;;;;3.75;1.70;;;29.30;44.30;;;;;;6245339;28;20068;-79
2023/07/22 13:12:40;;;;;;;2.97;1.63;;;29.20;45.20;;;;;;6244225;28;20037;-79
2023/07/22 13:15:41;;;;;;;4.22;1.92;;;29.60;44.70;;;;;;6247365;28;20073;-80
2023/07/22 13:18:43;;;;;;;7.82;1.50;;;29.70;44.50;;;;;;6246632;28;20060;-79
2023/07/22 13:21:46;;;;;;;2.40;1.45;;;29.70;44.70;;;;;;6257728;28;20534;-80
2023/07/22 13:24:48;;;;;;;1.95;1.73;;;29.70;44.90;;;;;;6250599;28;20044;-83
2023/07/22 13:27:50;;;;;;;3.72;1.80;;;30.00;44.10;;;;;;6249765;28;20493;-81
2023/07/22 13:30:51;;;;;;;2.00;1.52;;;30.10;43.60;;;;;;6252996;28;20408;-83
2023/07/22 13:33:53;;;;;;;4.13;1.73;;;30.20;43.70;;;;;;6251365;28;20338;-81
2023/07/22 13:36:56;;;;;;;3.42;2.50;;;30.40;43.60;;;;;;6253128;28;20045;-81
2023/07/22 13:39:58;;;;;;;2.65;2.20;;;30.50;43.40;;;;;;6257816;28;20416;-81
2023/07/22 13:43:00;;;;;;;6.95;2.38;;;30.70;43.40;;;;;;6257689;28;20061;-80
2023/07/22 13:46:01;;;;;;;4.93;2.13;;;30.90;43.30;;;;;;6257796;28;20056;-81
2023/07/22 13:49:03;;;;;;;2.47;1.90;;;31.20;42.80;;;;;;6250065;28;20049;-80
2023/07/22 13:52:06;;;;;;;3.33;1.58;;;31.30;42.40;;;;;;6247266;28;20052;-78
2023/07/22 13:55:09;;;;;;;3.13;2.17;;;31.40;42.10;;;;;;6256190;28;20053;-80
2023/07/22 13:58:11;;;;;;;4.43;1.85;;;31.40;42.40;;;;;;6246247;28;20060;-81
2023/07/22 14:01:13;;;;;;;2.28;1.92;;;31.20;42.20;;;;;;6255710;28;20132;-80
2023/07/22 14:04:15;;;;;;;3.28;1.55;;;31.40;42.30;;;;;;6259276;28;20117;-82
2023/07/22 14:07:18;;;;;;;2.28;1.92;;;31.60;41.70;;;;;;6252254;28;20060;-81
2023/07/22 14:10:19;;;;;;;2.72;1.92;;;31.60;41.40;;;;;;6256160;28;20048;-83
2023/07/22 14:13:21;;;;;;;3.33;1.92;;;31.40;41.80;;;;;;6261294;28;20047;-82
2023/07/22 14:16:23;;;;;;;3.10;2.20;;;31.10;41.40;;;;;;6258104;28;20051;-83
2023/07/22 14:19:25;;;;;;;3.72;1.75;;;31.10;41.80;;;;;;6260722;28;20155;-82
2023/07/22 14:22:28;;;;;;;9.90;2.33;;;31.00;41.80;;;;;;6253716;28;21280;-82
2023/07/22 14:25:30;;;;;;;4.57;2.17;;;30.90;41.60;;;;;;6250791;28;20061;-82
2023/07/22 14:28:31;;;;;;;2.75;1.73;;;30.80;42.00;;;;;;6252416;28;20052;-81
2023/07/22 14:31:35;;;;;;;2.70;1.80;;;30.70;42.10;;;;;;6256099;28;20113;-82
2023/07/22 14:34:37;;;;;;;3.00;2.05;;;30.60;41.80;;;;;;6251156;28;20175;-84
2023/07/22 14:37:40;;;;;;;2.85;2.03;;;30.50;41.60;;;;;;6253168;28;20058;-82
2023/07/22 14:40:42;;;;;;;4.22;2.30;;;30.50;41.80;;;;;;6256585;28;20049;-83
2023/07/22 14:43:44;;;;;;;4.40;2.45;;;30.40;41.50;;;;;;6248823;28;20386;-79
2023/07/22 14:46:45;;;;;;;3.05;2.35;;;30.30;41.40;;;;;;6245549;28;20072;-80
2023/07/22 14:49:47;;;;;;;7.30;2.80;;;30.20;41.40;;;;;;6250409;28;20053;-82
2023/07/22 14:52:52;;;;;;;3.20;2.25;;;30.30;41.50;;;;;;6251300;28;20064;-83
2023/07/22 14:55:54;;;;;;;4.63;2.50;;;30.50;41.30;;;;;;6247689;28;20045;-80
2023/07/22 14:58:56;;;;;;;2.83;2.10;;;30.70;41.30;;;;;;6252859;28;20045;-80
2023/07/22 15:01:57;;;;;;;3.25;2.50;;;30.80;41.00;;;;;;6250454;28;20053;-80
2023/07/22 15:05:01;;;;;;;6.03;3.10;;;30.80;40.90;;;;;;6244539;28;20068;-81
2023/07/22 15:08:04;;;;;;;3.45;2.35;;;30.80;41.00;;;;;;6245351;28;20509;-82
2023/07/22 15:11:07;;;;;;;2.35;1.80;;;30.70;40.80;;;;;;6248006;28;20409;-79
2023/07/22 15:14:09;;;;;;;3.88;2.60;;;30.60;40.80;;;;;;6252797;28;20123;-80
2023/07/22 15:17:11;;;;;;;2.70;2.40;;;30.50;40.70;;;;;;6249486;28;20049;-81
2023/07/22 15:20:13;;;;;;;5.25;2.63;;;30.70;40.80;;;;;;6251049;28;20057;-81
2023/07/22 15:23:16;;;;;;;4.05;2.72;;;31.00;40.70;;;;;;6252770;28;20046;-79
2023/07/22 15:26:17;;;;;;;6.18;2.63;;;31.30;40.60;;;;;;6251403;28;20052;-80
2023/07/22 15:29:19;;;;;;;2.33;1.95;;;31.30;40.20;;;;;;6249969;28;20052;-79
2023/07/22 15:32:21;;;;;;;4.93;1.90;;;31.20;40.30;;;;;;6250475;28;20057;-79
2023/07/22 15:35:22;;;;;;;2.67;2.40;;;31.40;40.50;;;;;;6252773;28;20064;-80
2023/07/22 15:38:26;;;;;;;5.90;2.70;;;31.60;40.30;;;;;;6256310;28;20041;-80
2023/07/22 15:41:28;;;;;;;8.20;3.20;;;31.70;40.50;;;;;;6260742;28;20049;-80
2023/07/22 15:44:30;;;;;;;4.55;2.67;;;31.80;40.70;;;;;;6257653;28;20053;-80
2023/07/22 15:47:31;;;;;;;5.03;2.42;;;32.10;40.50;;;;;;6257607;28;20060;-79
2023/07/22 15:50:33;;;;;;;4.03;3.38;;;32.00;40.20;;;;;;6259084;28;20045;-80